Freedom — WDD5438 — position and weather

sailwx.info

Track history (hours):
 
Tides and Currents Weather Stations Pressure Air Temp Water Temp Dewpoint Dewpoint Depression Visibility Wind Speed Wind Dir Waves Ship Positions

Freedom

Owner: DRISCOLL, ROBIN JOHN, LOS ALTOS HILLS, CA. More information available from US FCC via Universal Licensing System and Coast Guard Vessel Documentation Center.

Last reported at 2017-Dec-10 02:12 UTC. Time now 2018-Jan-20 15:22 UTC.
Position N 37°48' W 122°27'.
Warning: this ship's position is 41 days out of date.

Length 17 m.

Type: Sailing vessel. MMSI: 367158390.

Date/timePositionNaut miles runAvg speedWind from/ knotsBaromVisibWave heightAir tempDewpointWater temp
2017-Dec-10 02:12N 37°48' W 122°27'0 0.0
2017-Dec-10 02:00N 37°48' W 122°27'3 5.5
2017-Dec-10 01:28N 37°51' W 122°27'1 0.7
2017-Dec-09 23:58N 37°52' W 122°28'2 3.7
2017-Dec-09 23:30N 37°53' W 122°26'1 2.6
2017-Dec-09 23:00N 37°52' W 122°27'3 6.1
2017-Dec-09 22:30N 37°49' W 122°29'1 2.3
2017-Dec-09 22:00N 37°49' W 122°30'3 6.4
2017-Dec-09 21:30N 37°48' W 122°26'1 1.0
2017-Dec-09 21:00N 37°48' W 122°27'  
2017-Dec-03 01:05N 37°48' W 122°27'0 0.0
2017-Dec-03 01:00N 37°48' W 122°27'1 2.0
2017-Dec-03 00:30N 37°49' W 122°27'1 1.0
2017-Dec-02 23:58N 37°50' W 122°27'1 2.2
2017-Dec-02 23:24N 37°51' W 122°28'2 4.3
2017-Dec-02 23:00N 37°49' W 122°29'2 4.4
2017-Dec-02 22:29N 37°48' W 122°31'2 5.0
2017-Dec-02 22:00N 37°49' W 122°28'2 3.4
2017-Dec-02 21:30N 37°48' W 122°26'0 0.9
2017-Dec-02 21:00N 37°48' W 122°27'  
Track history (hours):
 
Tides and Currents Weather Stations Pressure Air Temp Water Temp Dewpoint Dewpoint Depression Visibility Wind Speed Wind Dir Waves Ship Positions

Freedom

Owner: DRISCOLL, ROBIN JOHN, LOS ALTOS HILLS, CA. More information available from US FCC via Universal Licensing System and Coast Guard Vessel Documentation Center.

Last reported at 2017-Dec-10 02:12 UTC. Time now 2018-Jan-20 15:22 UTC.
Position N 37°48' W 122°27'.
Warning: this ship's position is 41 days out of date.

Length 17 m.

Type: Sailing vessel. MMSI: 367158390.

Date/timePositionNaut miles runAvg speedWind from/ knotsBaromVisibWave heightAir tempDewpointWater temp
2017-Dec-10 02:12N 37°48' W 122°27'0 0.0
2017-Dec-10 02:00N 37°48' W 122°27'3 5.5
2017-Dec-10 01:28N 37°51' W 122°27'1 0.7
2017-Dec-09 23:58N 37°52' W 122°28'2 3.7
2017-Dec-09 23:30N 37°53' W 122°26'1 2.6
2017-Dec-09 23:00N 37°52' W 122°27'3 6.1
2017-Dec-09 22:30N 37°49' W 122°29'1 2.3
2017-Dec-09 22:00N 37°49' W 122°30'3 6.4
2017-Dec-09 21:30N 37°48' W 122°26'1 1.0
2017-Dec-09 21:00N 37°48' W 122°27'  
2017-Dec-03 01:05N 37°48' W 122°27'0 0.0
2017-Dec-03 01:00N 37°48' W 122°27'1 2.0
2017-Dec-03 00:30N 37°49' W 122°27'1 1.0
2017-Dec-02 23:58N 37°50' W 122°27'1 2.2
2017-Dec-02 23:24N 37°51' W 122°28'2 4.3
2017-Dec-02 23:00N 37°49' W 122°29'2 4.4
2017-Dec-02 22:29N 37°48' W 122°31'2 5.0
2017-Dec-02 22:00N 37°49' W 122°28'2 3.4
2017-Dec-02 21:30N 37°48' W 122°26'0 0.9
2017-Dec-02 21:00N 37°48' W 122°27'  

Dump ship's entire track history